createdAt,value
2019-06-01T00:00:11.911Z,67.37
2019-06-01T00:02:38.583Z,65.83
2019-06-01T00:05:08.047Z,65.31
2019-06-01T00:07:36.025Z,65.02
2019-06-01T00:32:23.764Z,60.24
2019-06-01T00:34:51.848Z,60.92
2019-06-01T00:37:19.184Z,60.03
2019-06-01T00:39:49.922Z,60.32
2019-06-01T00:42:17.717Z,60.97
2019-06-01T00:44:44.628Z,60.21
2019-06-01T00:47:11.630Z,60.00
2019-06-01T00:49:38.519Z,59.59
2019-06-01T00:52:05.391Z,59.83
2019-06-01T00:54:32.100Z,59.61
2019-06-01T00:56:59.350Z,59.76
2019-06-01T00:59:25.962Z,60.59
2019-06-01T01:01:52.520Z,61.40
2019-06-01T01:04:19.715Z,61.65
2019-06-01T01:06:46.549Z,61.83
2019-06-01T01:09:13.522Z,62.21
2019-06-01T01:11:40.224Z,62.56
2019-06-01T01:14:07.131Z,63.05
2019-06-01T01:16:33.870Z,62.95
2019-06-01T01:19:00.958Z,63.31
2019-06-01T01:21:27.905Z,63.41
2019-06-01T01:23:54.794Z,63.54
2019-06-01T01:26:21.356Z,65.39
2019-06-01T01:28:48.802Z,64.43
2019-06-01T01:31:15.582Z,65.99
2019-06-01T01:33:42.040Z,66.54
2019-06-01T01:36:08.592Z,66.38
2019-06-01T01:38:35.251Z,66.17
2019-06-01T01:41:02.326Z,64.26
2019-06-01T01:43:28.989Z,62.65
2019-06-01T01:45:56.872Z,62.22
2019-06-01T01:48:23.580Z,63.14
2019-06-01T01:50:50.253Z,64.09
2019-06-01T01:53:16.893Z,62.85
2019-06-01T01:55:43.432Z,64.52
2019-06-01T01:58:10.295Z,64.79
2019-06-01T02:06:29.627Z,65.76
2019-06-01T02:08:57.173Z,66.34
2019-06-01T02:11:24.405Z,66.66
2019-06-01T02:27:15.038Z,68.60
2019-06-01T02:29:42.526Z,68.74
2019-06-01T02:32:09.640Z,67.08
2019-06-01T02:34:36.848Z,67.72
2019-06-01T02:37:04.561Z,69.23
2019-06-01T02:39:32.122Z,69.88
2019-06-01T02:42:01.050Z,68.66
2019-06-01T02:44:28.358Z,69.23
2019-06-01T02:46:56.962Z,70.15
2019-06-01T02:49:24.486Z,70.71
2019-06-01T02:51:51.683Z,68.25
2019-06-01T02:55:07.531Z,68.58
2019-06-01T03:04:50.093Z,69.46
2019-06-01T03:07:18.393Z,69.81
2019-06-01T03:21:32.943Z,68.88
2019-06-01T03:24:05.951Z,70.38
2019-06-01T03:26:43.680Z,68.95
2019-06-01T03:29:19.587Z,69.41
2019-06-01T03:35:49.080Z,68.41
2019-06-01T03:50:04.807Z,66.79
2019-06-01T03:52:31.963Z,66.50
2019-06-01T03:55:05.804Z,66.13
2019-06-01T03:57:33.666Z,66.84
2019-06-01T04:04:03.048Z,66.02
2019-06-01T04:06:30.328Z,65.80
2019-06-01T04:08:58.523Z,65.07
2019-06-01T05:52:20.820Z,61.99
2019-06-01T05:54:48.147Z,62.27
2019-06-01T05:57:15.185Z,62.36
2019-06-01T06:14:23.250Z,63.28
2019-06-01T06:16:50.288Z,62.98
2019-06-01T06:19:21.082Z,62.26
2019-06-01T06:21:49.027Z,62.20
2019-06-01T06:24:18.547Z,61.57
2019-06-01T06:31:08.488Z,60.67
2019-06-01T06:37:08.151Z,59.31
2019-06-01T06:39:35.157Z,59.68
2019-06-01T06:42:02.070Z,59.56
2019-06-01T06:44:28.791Z,61.00
2019-06-01T06:46:55.345Z,60.33
2019-06-01T06:49:23.210Z,59.62
2019-06-01T06:51:50.099Z,59.45
2019-06-01T06:54:17.705Z,59.43
2019-06-01T06:56:44.633Z,59.06
2019-06-01T06:59:11.858Z,59.65
2019-06-01T07:01:38.771Z,59.02
2019-06-01T07:04:12.509Z,58.86
2019-06-01T07:06:34.263Z,57.82
2019-06-01T07:09:01.089Z,56.80
2019-06-01T07:11:29.394Z,55.88
2019-06-01T07:13:56.129Z,55.55
2019-06-01T07:16:23.520Z,54.97
2019-06-01T07:18:50.157Z,55.27
2019-06-01T07:21:16.796Z,52.86
2019-06-01T07:23:43.613Z,51.12
2019-06-01T07:26:10.393Z,49.51
2019-06-01T07:28:37.158Z,49.35
2019-06-01T07:31:03.764Z,48.69
2019-06-01T07:33:30.315Z,47.29
2019-06-01T07:35:58.589Z,47.11
2019-06-01T07:38:28.916Z,47.02
2019-06-01T07:40:55.608Z,45.78
2019-06-01T07:43:22.621Z,44.61
2019-06-01T07:45:50.193Z,43.66
2019-06-01T07:48:17.040Z,45.53
2019-06-01T07:50:48.963Z,41.90
2019-06-01T07:53:17.876Z,42.13
2019-06-01T07:55:44.504Z,42.90
2019-06-01T07:58:11.137Z,43.84
2019-06-01T08:00:38.510Z,43.48
2019-06-01T08:03:05.419Z,44.21
2019-06-01T08:05:34.430Z,42.30
2019-06-01T08:08:01.139Z,44.24
2019-06-01T08:10:27.838Z,45.38
2019-06-01T08:12:54.465Z,42.80
2019-06-01T08:15:21.751Z,41.56
2019-06-01T08:17:48.899Z,41.49
2019-06-01T08:20:17.307Z,42.25
2019-06-01T08:22:44.358Z,42.08
2019-06-01T08:25:11.298Z,43.45
2019-06-01T08:27:37.996Z,42.44
2019-06-01T08:30:07.467Z,41.42
2019-06-01T08:32:34.366Z,41.45
2019-06-01T08:35:08.742Z,40.26
2019-06-01T08:37:31.374Z,40.07
2019-06-01T08:39:59.272Z,39.41
2019-06-01T08:42:27.379Z,40.53
2019-06-01T08:44:54.369Z,39.64
2019-06-01T08:47:21.062Z,42.44
2019-06-01T08:49:47.642Z,43.80
2019-06-01T08:52:14.352Z,44.14
2019-06-01T08:54:41.181Z,43.34
2019-06-01T08:57:07.818Z,43.07
2019-06-01T08:59:34.671Z,42.83
2019-06-01T09:02:01.517Z,45.23
2019-06-01T09:04:28.842Z,45.19
2019-06-01T09:06:55.577Z,45.87
2019-06-01T09:09:22.577Z,46.56
2019-06-01T09:11:49.429Z,46.39
2019-06-01T09:14:16.039Z,45.03
2019-06-01T09:16:42.743Z,45.01
2019-06-01T09:19:11.334Z,45.87
2019-06-01T09:21:38.125Z,45.77
2019-06-01T09:24:04.885Z,47.78
2019-06-01T09:26:32.009Z,48.09
2019-06-01T09:28:58.729Z,49.48
2019-06-01T09:31:26.290Z,51.76
2019-06-01T09:33:52.853Z,50.33
2019-06-01T09:36:19.538Z,50.91
2019-06-01T09:38:46.007Z,51.93
2019-06-01T09:41:12.659Z,50.35
2019-06-01T09:43:39.278Z,53.05
2019-06-01T09:46:05.999Z,53.05
2019-06-01T09:48:33.578Z,50.80
2019-06-01T09:51:00.435Z,50.80
2019-06-01T09:53:28.658Z,52.25
2019-06-01T09:55:55.938Z,55.72
2019-06-01T09:58:23.309Z,55.72
2019-06-01T10:00:50.228Z,51.01
2019-06-01T10:03:18.818Z,51.01
2019-06-01T10:06:00.767Z,54.29
2019-06-01T10:08:14.351Z,54.40
2019-06-01T10:10:42.166Z,47.70
2019-06-01T10:13:08.993Z,46.66
2019-06-01T10:15:36.461Z,46.49
2019-06-01T10:18:03.351Z,48.87
2019-06-01T10:20:30.665Z,45.63
2019-06-01T10:22:57.423Z,45.63
2019-06-01T10:25:24.097Z,46.72
2019-06-01T10:27:50.656Z,49.46
2019-06-01T10:30:17.921Z,47.66
2019-06-01T10:32:44.458Z,49.83
2019-06-01T10:35:11.307Z,47.30
2019-06-01T10:37:41.805Z,46.84
2019-06-01T10:40:09.338Z,44.80
2019-06-01T10:42:36.567Z,44.80
2019-06-01T10:45:06.376Z,46.12
2019-06-01T10:47:34.424Z,46.02
2019-06-01T10:50:01.297Z,46.02
2019-06-01T10:52:27.993Z,46.92
2019-06-01T10:55:05.800Z,45.88
2019-06-01T10:57:34.482Z,44.85
2019-06-01T11:00:02.857Z,44.42
2019-06-01T11:02:29.794Z,44.84
2019-06-01T11:04:56.704Z,47.95
2019-06-01T11:07:23.440Z,46.14
2019-06-01T11:09:50.034Z,46.65
2019-06-01T11:12:16.975Z,48.08
2019-06-01T11:14:43.859Z,45.15
2019-06-01T11:17:10.698Z,45.03
2019-06-01T11:19:37.673Z,44.38
2019-06-01T11:22:04.535Z,45.86
2019-06-01T11:24:31.419Z,47.42
2019-06-01T11:26:58.420Z,48.76
2019-06-01T11:29:25.170Z,47.92
2019-06-01T11:31:51.967Z,46.05
2019-06-01T11:34:18.699Z,47.76
2019-06-01T11:37:01.878Z,46.66
2019-06-01T11:39:14.048Z,46.88
2019-06-01T11:41:40.821Z,48.81
2019-06-01T11:44:07.640Z,49.55
2019-06-01T11:46:34.740Z,48.00
2019-06-01T11:49:01.858Z,48.96
2019-06-01T11:51:28.568Z,48.91
2019-06-01T11:53:55.284Z,51.92
2019-06-01T11:56:21.883Z,50.22
2019-06-01T11:58:48.463Z,47.67
2019-06-01T12:01:15.262Z,50.58
2019-06-01T12:03:41.922Z,48.36
2019-06-01T12:06:08.618Z,49.12
2019-06-01T12:08:35.968Z,49.61
2019-06-01T12:11:03.294Z,49.61
2019-06-01T12:13:29.778Z,49.38
2019-06-01T12:15:56.585Z,47.75
2019-06-01T12:18:23.265Z,47.96
2019-06-01T12:20:50.002Z,47.68
2019-06-01T12:23:16.638Z,46.99
2019-06-01T12:25:44.374Z,46.99
2019-06-01T12:28:11.147Z,46.56
2019-06-01T12:30:39.519Z,48.14
2019-06-01T12:33:06.452Z,46.63
2019-06-01T12:35:33.082Z,45.71
2019-06-01T12:38:06.613Z,45.56
2019-06-01T12:40:29.984Z,45.47
2019-06-01T12:42:56.654Z,44.48
2019-06-01T12:45:25.771Z,43.04
2019-06-01T12:47:57.734Z,43.04
2019-06-01T12:50:21.371Z,41.68
2019-06-01T12:52:48.624Z,43.73
2019-06-01T12:55:16.035Z,40.01
2019-06-01T12:57:42.959Z,39.67
2019-06-01T13:00:10.452Z,41.48
2019-06-01T13:02:37.035Z,41.02
2019-06-01T13:05:05.634Z,41.24
2019-06-01T13:07:32.195Z,40.97
2019-06-01T13:09:59.044Z,39.75
2019-06-01T13:12:25.853Z,40.15
2019-06-01T13:14:54.412Z,41.65
2019-06-01T13:17:21.128Z,42.08
2019-06-01T13:19:47.770Z,42.99
2019-06-01T13:22:14.319Z,43.41
2019-06-01T13:24:41.575Z,44.91
2019-06-01T13:27:08.336Z,42.92
2019-06-01T13:29:35.210Z,43.15
2019-06-01T13:32:01.953Z,41.59
2019-06-01T13:34:28.587Z,41.35
2019-06-01T13:36:56.415Z,40.71
2019-06-01T13:39:23.017Z,40.55
2019-06-01T13:41:49.708Z,41.14
2019-06-01T13:44:16.377Z,39.33
2019-06-01T13:46:43.527Z,39.87
2019-06-01T13:49:10.393Z,42.11
2019-06-01T13:51:36.967Z,43.99
2019-06-01T13:54:04.009Z,45.76
2019-06-01T13:56:30.637Z,47.14
2019-06-01T13:58:57.295Z,48.31
2019-06-01T14:01:23.893Z,48.74
2019-06-01T14:03:52.288Z,48.14
2019-06-01T14:06:19.066Z,48.61
2019-06-01T14:08:49.105Z,50.57
2019-06-01T14:11:15.844Z,52.20
2019-06-01T14:13:42.634Z,53.97
2019-06-01T14:16:09.474Z,55.36
2019-06-01T14:18:36.163Z,56.20
2019-06-01T14:21:02.998Z,56.79
2019-06-01T14:23:29.542Z,57.39
2019-06-01T14:25:56.407Z,57.32
2019-06-01T14:28:23.302Z,57.22
2019-06-01T14:30:50.260Z,57.09
2019-06-01T14:33:17.095Z,57.81
2019-06-01T14:35:43.771Z,57.75
2019-06-01T14:38:10.488Z,58.29
2019-06-01T14:40:41.197Z,57.80
2019-06-01T14:43:06.191Z,57.90
2019-06-01T14:45:33.145Z,57.94
2019-06-01T14:47:59.852Z,57.97
2019-06-01T14:50:26.741Z,57.64
2019-06-01T14:52:53.727Z,57.31
2019-06-01T14:55:20.544Z,56.92
2019-06-01T14:57:48.491Z,56.29
2019-06-01T15:00:16.207Z,56.83
2019-06-01T15:02:42.985Z,57.03
2019-06-01T15:05:10.238Z,57.62
2019-06-01T15:07:37.339Z,56.76
2019-06-01T15:10:07.265Z,56.69
2019-06-01T15:12:33.945Z,56.25
2019-06-01T15:15:03.392Z,55.77
2019-06-01T15:17:30.308Z,56.41
2019-06-01T15:19:58.205Z,56.07
2019-06-01T15:22:25.036Z,55.68
2019-06-01T15:24:52.321Z,55.72
2019-06-01T15:27:18.958Z,55.61
2019-06-01T15:29:45.581Z,55.93
2019-06-01T15:32:12.301Z,55.70
2019-06-01T15:34:38.965Z,56.70
2019-06-01T15:37:05.631Z,56.98
2019-06-01T15:39:32.091Z,56.01
2019-06-01T15:41:59.136Z,55.74
2019-06-01T15:44:25.736Z,55.67
2019-06-01T15:46:53.710Z,55.70
2019-06-01T15:49:20.504Z,55.74
2019-06-01T15:51:47.092Z,55.67
2019-06-01T15:54:13.808Z,55.79
2019-06-01T15:56:40.601Z,55.52
2019-06-01T15:59:07.456Z,55.73
2019-06-01T16:01:34.436Z,55.01
2019-06-01T16:04:01.427Z,53.96
2019-06-01T16:06:28.295Z,53.32
2019-06-01T16:08:57.275Z,53.67
2019-06-01T16:11:24.202Z,55.86
2019-06-01T16:13:50.984Z,60.73
2019-06-01T16:16:17.733Z,62.13
2019-06-01T16:18:44.742Z,62.55
2019-06-01T16:21:11.889Z,63.97
2019-06-01T16:23:49.270Z,65.24
2019-06-01T16:26:15.687Z,63.04
2019-06-01T16:28:36.009Z,63.99
2019-06-01T16:31:03.275Z,64.69
2019-06-01T16:33:29.916Z,65.19
2019-06-01T16:35:56.949Z,68.23
2019-06-01T16:38:23.854Z,70.08
2019-06-01T16:40:50.337Z,68.05
2019-06-01T16:43:17.193Z,68.16
2019-06-01T16:45:44.062Z,69.67
2019-06-01T16:48:10.824Z,71.70
2019-06-01T16:50:37.571Z,69.72
2019-06-01T16:53:06.170Z,69.11
2019-06-01T16:55:35.052Z,69.28
2019-06-01T16:58:03.748Z,70.71
2019-06-01T17:00:30.670Z,70.47
2019-06-01T17:02:58.464Z,69.76
2019-06-01T17:05:26.004Z,69.08
2019-06-01T17:07:52.786Z,68.00
2019-06-01T17:10:26.276Z,67.71
2019-06-01T17:12:49.812Z,68.40
2019-06-01T17:15:17.092Z,69.41
2019-06-01T17:17:44.096Z,70.02
2019-06-01T17:21:03.524Z,70.74
2019-06-01T17:23:33.986Z,70.86
2019-06-01T17:26:07.038Z,70.41
2019-06-01T17:28:55.734Z,71.03
2019-06-01T17:31:26.168Z,70.58
2019-06-01T17:33:52.806Z,70.96
2019-06-01T17:36:19.598Z,71.16
2019-06-01T17:38:46.467Z,71.08
2019-06-01T17:41:13.208Z,71.17
2019-06-01T17:43:39.867Z,71.58
2019-06-01T17:46:07.274Z,71.85
2019-06-01T17:48:34.148Z,72.53
2019-06-01T17:51:02.461Z,74.41
2019-06-01T17:53:29.594Z,73.21
2019-06-01T17:55:56.413Z,73.00
2019-06-01T17:58:23.387Z,73.02
2019-06-01T18:00:50.284Z,71.93
2019-06-01T18:03:16.962Z,71.74
2019-06-01T18:05:43.909Z,71.88
2019-06-01T18:08:12.335Z,72.36
2019-06-01T18:10:53.177Z,72.13
2019-06-01T18:13:08.915Z,72.37
2019-06-01T18:15:36.112Z,72.54
2019-06-01T18:18:04.526Z,71.79
2019-06-01T18:20:31.391Z,71.90
2019-06-01T18:22:58.045Z,72.04
2019-06-01T18:25:26.605Z,72.60
2019-06-01T18:27:53.514Z,72.70
2019-06-01T18:30:21.760Z,72.75
2019-06-01T18:32:48.860Z,72.65
2019-06-01T18:35:19.464Z,72.75
2019-06-01T18:37:44.351Z,72.89
2019-06-01T18:40:13.840Z,73.31
2019-06-01T18:42:42.775Z,73.25
2019-06-01T18:45:11.717Z,72.57
2019-06-01T18:47:39.302Z,72.99
2019-06-01T18:50:08.022Z,72.83
2019-06-01T18:52:35.520Z,72.56
2019-06-01T18:55:04.346Z,73.00
2019-06-01T18:57:38.633Z,74.40
2019-06-01T19:00:08.909Z,75.96
2019-06-01T19:02:35.860Z,77.48
2019-06-01T19:05:05.162Z,76.00
2019-06-01T19:07:31.825Z,75.97
2019-06-01T19:09:58.631Z,75.88
2019-06-01T19:12:25.197Z,75.71
2019-06-01T19:14:51.823Z,75.16
2019-06-01T19:17:18.553Z,75.90
2019-06-01T19:19:45.016Z,75.88
2019-06-01T19:22:12.507Z,75.94
2019-06-01T19:24:39.330Z,76.66
2019-06-01T19:27:06.671Z,76.71
2019-06-01T19:29:33.705Z,76.54
2019-06-01T19:32:00.761Z,76.77
2019-06-01T19:34:27.747Z,76.29
2019-06-01T19:36:57.781Z,75.58
2019-06-01T19:39:25.663Z,75.68
2019-06-01T19:41:52.325Z,76.30
2019-06-01T19:44:18.891Z,76.58
2019-06-01T19:46:45.487Z,76.54
2019-06-01T19:49:13.275Z,76.02
2019-06-01T19:51:40.734Z,75.67
2019-06-01T19:54:08.648Z,76.25
2019-06-01T19:56:35.419Z,76.45
2019-06-01T19:59:02.237Z,77.14
2019-06-01T20:01:29.057Z,77.34
2019-06-01T20:03:55.594Z,77.35
2019-06-01T20:06:23.316Z,77.47
2019-06-01T20:08:50.133Z,77.13
2019-06-01T20:11:17.180Z,77.30
2019-06-01T20:13:44.217Z,77.30
2019-06-01T20:16:12.301Z,77.21
2019-06-01T20:18:39.164Z,77.22
2019-06-01T20:21:05.954Z,77.34
2019-06-01T20:23:32.549Z,77.23
2019-06-01T20:26:00.018Z,77.37
2019-06-01T20:28:26.701Z,77.54
2019-06-01T20:30:53.185Z,77.65
2019-06-01T20:33:20.477Z,77.86
2019-06-01T20:35:48.197Z,78.09
2019-06-01T20:38:20.554Z,78.45
2019-06-01T20:40:47.500Z,78.49
2019-06-01T20:43:15.188Z,78.43
2019-06-01T20:45:42.886Z,78.30
2019-06-01T20:48:09.741Z,78.07
2019-06-01T20:50:36.680Z,77.94
2019-06-01T20:53:03.431Z,78.19
2019-06-01T20:55:30.096Z,78.11
2019-06-01T20:57:56.680Z,78.52
2019-06-01T21:00:23.833Z,78.25
2019-06-01T21:02:52.485Z,78.00
2019-06-01T21:05:19.980Z,77.48
2019-06-01T21:07:47.034Z,77.61
2019-06-01T21:10:18.149Z,77.63
2019-06-01T21:12:46.050Z,77.55
2019-06-01T21:15:13.341Z,77.61
2019-06-01T21:17:40.182Z,77.48
2019-06-01T21:20:07.070Z,77.92
2019-06-01T21:22:33.803Z,77.59
2019-06-01T21:25:00.792Z,77.42
2019-06-01T21:27:27.553Z,77.53
2019-06-01T21:29:54.833Z,77.85
2019-06-01T21:32:21.428Z,78.32
2019-06-01T21:34:48.133Z,79.32
2019-06-01T21:37:15.359Z,79.86
2019-06-01T21:39:42.684Z,79.59
2019-06-01T21:42:09.534Z,78.96
2019-06-01T21:44:36.175Z,78.77
2019-06-01T21:47:02.868Z,78.58
2019-06-01T21:49:30.022Z,79.01
2019-06-01T21:51:56.754Z,79.10
2019-06-01T21:54:24.603Z,78.98
2019-06-01T21:56:51.592Z,78.97
2019-06-01T21:59:18.516Z,78.99
2019-06-01T22:01:45.650Z,79.23
2019-06-01T22:04:12.363Z,79.12
2019-06-01T22:06:38.921Z,79.04
2019-06-01T22:09:05.740Z,79.16
2019-06-01T22:11:32.572Z,79.13
2019-06-01T22:13:59.170Z,79.09
2019-06-01T22:16:25.859Z,79.08
2019-06-01T22:18:52.486Z,79.42
2019-06-01T22:21:19.695Z,79.56
2019-06-01T22:23:46.352Z,79.44
2019-06-01T22:39:47.729Z,79.88
2019-06-01T22:42:14.502Z,79.71
2019-06-01T22:44:40.948Z,79.65
2019-06-01T22:47:07.546Z,79.77
2019-06-01T22:49:34.144Z,80.02
2019-06-01T22:55:34.766Z,79.83
2019-06-01T23:09:56.542Z,80.84
2019-06-01T23:12:23.392Z,80.69
2019-06-01T23:14:50.167Z,80.52
2019-06-01T23:17:16.935Z,80.38
2019-06-01T23:19:44.012Z,80.21
2019-06-01T23:22:10.504Z,80.19
2019-06-01T23:24:37.030Z,79.96
2019-06-01T23:27:03.842Z,79.81
2019-06-01T23:29:32.496Z,79.75
2019-06-01T23:31:59.235Z,79.77
2019-06-01T23:34:26.640Z,79.64
2019-06-01T23:36:53.343Z,79.68
2019-06-01T23:39:19.945Z,79.48
2019-06-01T23:41:46.706Z,79.41
2019-06-01T23:44:14.870Z,79.58
2019-06-01T23:46:41.510Z,79.76
2019-06-01T23:49:08.156Z,80.03
2019-06-01T23:51:34.841Z,80.71
2019-06-01T23:54:01.407Z,81.26
2019-06-01T23:56:28.046Z,81.59
2019-06-01T23:58:54.584Z,81.07
